Time;durP1;ratioP1;P1;durP2;ratioP2;P2;SDS_P1;SDS_P2;PMS_P1;PMS_P2;Temp;Humidity;BMP_temperature;BMP_pressure;BME280_temperature;BME280_humidity;BME280_pressure;Samples;Min_cycle;Max_cycle;Signal;HPM_P1;HPM_P2
2023/03/22 00:02:13;;;;;;;20.35;11.40;;;9.30;94.50;;;;;;6186683;23;20027;-79
2023/03/22 00:04:42;;;;;;;22.92;9.85;;;9.00;94.70;;;;;;6210237;23;20025;-80
2023/03/22 00:07:14;;;;;;;18.88;10.45;;;8.70;94.70;;;;;;6194772;23;20027;-79
2023/03/22 00:09:42;;;;;;;21.38;10.60;;;9.00;94.90;;;;;;6217403;23;20111;-80
2023/03/22 00:12:09;;;;;;;27.17;11.63;;;9.40;95.40;;;;;;6193690;23;20027;-80
2023/03/22 00:14:40;;;;;;;25.55;12.18;;;9.00;95.60;;;;;;6194559;23;20020;-79
2023/03/22 00:17:07;;;;;;;25.20;13.32;;;9.00;95.90;;;;;;6218001;23;20020;-79
2023/03/22 00:19:36;;;;;;;23.58;11.65;;;9.10;96.30;;;;;;6218718;23;20091;-80
2023/03/22 00:22:05;;;;;;;27.55;12.23;;;9.00;96.20;;;;;;6193946;23;20063;-79
2023/03/22 00:24:41;;;;;;;24.67;12.50;;;9.40;96.50;;;;;;6193555;23;20020;-80
2023/03/22 00:27:08;;;;;;;25.25;12.98;;;8.90;96.70;;;;;;6193000;23;20467;-80
2023/03/22 00:29:36;;;;;;;30.50;14.77;;;8.90;97.00;;;;;;6188594;23;20020;-79
2023/03/22 00:32:03;;;;;;;27.10;12.35;;;8.80;97.20;;;;;;6191935;23;20031;-80
2023/03/22 00:34:32;;;;;;;27.92;14.32;;;8.70;97.20;;;;;;6191992;23;20384;-80
2023/03/22 00:37:01;;;;;;;28.63;14.32;;;8.70;97.10;;;;;;6192019;23;20032;-80
2023/03/22 00:39:29;;;;;;;29.63;14.02;;;8.80;97.40;;;;;;6216716;23;20048;-79
2023/03/22 00:41:56;;;;;;;29.95;15.35;;;8.60;97.00;;;;;;6189359;23;20055;-79
2023/03/22 00:44:24;;;;;;;30.05;14.40;;;8.30;96.80;;;;;;6214607;23;20031;-79
2023/03/22 00:46:58;;;;;;;33.08;15.50;;;8.60;97.00;;;;;;6218017;23;20024;-80
2023/03/22 00:49:26;;;;;;;35.20;17.30;;;8.40;96.90;;;;;;6188100;23;20020;-79
2023/03/22 00:51:56;;;;;;;39.60;18.13;;;8.60;97.00;;;;;;6204060;23;20568;-79
2023/03/22 00:54:26;;;;;;;44.33;20.45;;;8.60;97.20;;;;;;6193051;23;20062;-79
2023/03/22 00:56:53;;;;;;;42.10;18.63;;;8.40;97.10;;;;;;6192973;23;20078;-79
2023/03/22 00:59:22;;;;;;;36.72;17.75;;;8.50;97.70;;;;;;6204934;23;20024;-79
2023/03/22 01:01:49;;;;;;;39.03;17.70;;;8.30;98.00;;;;;;6192722;23;20019;-79
2023/03/22 01:04:24;;;;;;;34.58;16.10;;;8.50;98.30;;;;;;6193855;23;20147;-79
2023/03/22 01:06:58;;;;;;;34.88;17.63;;;8.30;98.30;;;;;;6193883;23;20024;-79
2023/03/22 01:09:27;;;;;;;36.30;17.67;;;8.50;98.10;;;;;;6217642;23;20085;-79
2023/03/22 01:12:04;;;;;;;32.72;16.45;;;8.30;98.20;;;;;;6192263;23;20020;-79
2023/03/22 01:14:31;;;;;;;38.65;17.45;;;8.30;98.10;;;;;;6192307;23;20035;-80
2023/03/22 01:16:59;;;;;;;33.20;16.33;;;8.40;98.20;;;;;;6217677;23;20024;-80
2023/03/22 01:19:30;;;;;;;29.20;15.23;;;8.30;98.20;;;;;;6192321;23;20047;-79
2023/03/22 01:21:57;;;;;;;28.77;13.05;;;8.40;98.90;;;;;;6155770;23;20021;-79
2023/03/22 01:24:24;;;;;;;29.02;14.57;;;8.00;99.50;;;;;;6126689;23;20010;-79
2023/03/22 01:26:52;;;;;;;28.70;14.32;;;8.00;99.80;;;;;;6154787;23;20031;-79
2023/03/22 01:29:19;;;;;;;26.70;12.80;;;8.10;99.80;;;;;;6125916;23;20915;-79
2023/03/22 01:31:47;;;;;;;26.85;13.07;;;8.00;99.80;;;;;;6129600;23;20036;-79
2023/03/22 01:34:17;;;;;;;27.58;13.27;;;8.00;99.70;;;;;;6154911;23;20029;-79
2023/03/22 01:36:45;;;;;;;29.63;12.18;;;8.00;99.40;;;;;;6131926;23;20017;-79
2023/03/22 01:39:13;;;;;;;26.58;13.02;;;8.00;99.40;;;;;;6155084;23;20025;-79
2023/03/22 01:41:42;;;;;;;21.98;11.25;;;7.90;99.40;;;;;;6155556;23;20474;-79
2023/03/22 01:44:21;;;;;;;25.00;11.45;;;7.70;99.60;;;;;;6132858;23;20143;-79
2023/03/22 01:46:51;;;;;;;23.98;12.07;;;7.90;99.60;;;;;;6155168;23;20025;-79
2023/03/22 01:49:26;;;;;;;25.77;12.30;;;7.80;99.60;;;;;;6155951;23;20025;-79
2023/03/22 01:51:59;;;;;;;24.58;11.95;;;7.80;99.50;;;;;;6157970;23;20017;-80
2023/03/22 01:54:41;;;;;;;22.42;10.85;;;7.70;99.50;;;;;;6193868;23;20028;-79
2023/03/22 01:57:32;;;;;;;21.67;11.70;;;7.70;99.20;;;;;;6197100;23;20028;-79
2023/03/22 02:00:02;;;;;;;24.05;11.45;;;7.80;99.10;;;;;;6186863;23;20034;-80
2023/03/22 02:03:11;;;;;;;22.20;11.38;;;7.60;99.10;;;;;;6067886;23;20139;-80
2023/03/22 02:05:43;;;;;;;26.85;12.10;;;7.40;99.00;;;;;;6092078;23;20936;-79
2023/03/22 02:08:14;;;;;;;26.88;12.98;;;7.70;99.10;;;;;;6151379;23;20408;-79
2023/03/22 02:10:59;;;;;;;33.08;11.70;;;7.40;98.90;;;;;;6192328;23;20116;-79
2023/03/22 02:13:51;;;;;;;28.45;12.95;;;7.50;98.90;;;;;;6194999;23;20052;-79
2023/03/22 02:16:52;;;;;;;29.13;13.30;;;7.50;99.10;;;;;;6219920;23;20105;-79
2023/03/22 02:19:53;;;;;;;;;;;7.10;98.90;;;;;;6194542;23;20019;-79
2023/03/22 02:22:29;;;;;;;29.38;13.40;;;7.30;99.50;;;;;;6197441;23;19919;-80
2023/03/22 02:25:18;;;;;;;27.13;14.05;;;7.50;99.90;;;;;;6194805;23;20023;-79
2023/03/22 02:27:55;;;;;;;31.38;13.88;;;7.30;99.90;;;;;;6194159;23;20020;-79
2023/03/22 02:30:41;;;;;;;33.22;15.70;;;7.10;99.90;;;;;;6218288;23;20016;-80
2023/03/22 02:33:55;;;;;;;32.75;14.48;;;7.00;99.90;;;;;;6193760;23;20055;-79
2023/03/22 02:36:35;;;;;;;32.33;12.85;;;7.10;99.90;;;;;;6220077;23;20622;-79
2023/03/22 02:39:14;;;;;;;28.75;14.52;;;7.10;99.90;;;;;;6218357;23;20047;-80
2023/03/22 02:42:19;;;;;;;28.92;13.32;;;7.20;99.90;;;;;;6194336;23;20012;-79
2023/03/22 02:45:09;;;;;;;30.02;13.27;;;7.10;99.90;;;;;;6191004;23;20107;-79
2023/03/22 02:47:55;;;;;;;32.60;14.10;;;7.20;99.90;;;;;;6195287;23;20094;-79
2023/03/22 02:50:50;;;;;;;27.20;12.57;;;7.10;99.90;;;;;;6193907;23;20016;-79
2023/03/22 02:53:46;;;;;;;30.52;13.90;;;7.10;99.90;;;;;;6185849;23;20103;-79
2023/03/22 02:56:30;;;;;;;35.25;13.70;;;7.00;99.90;;;;;;6177391;23;20078;-79
2023/03/22 02:59:03;;;;;;;27.35;12.50;;;7.10;99.90;;;;;;6194446;23;20020;-79
2023/03/22 03:01:49;;;;;;;26.85;12.98;;;7.00;99.90;;;;;;6194442;23;20119;-79
2023/03/22 03:04:21;;;;;;;30.83;13.10;;;6.90;99.90;;;;;;6193768;23;20022;-79
2023/03/22 03:06:53;;;;;;;29.30;12.88;;;6.80;99.90;;;;;;6194555;23;20024;-79
2023/03/22 03:09:24;;;;;;;26.10;11.48;;;6.90;99.90;;;;;;6195202;23;20016;-79
2023/03/22 03:11:52;;;;;;;24.98;12.45;;;7.10;99.90;;;;;;6194644;23;20115;-79
2023/03/22 03:14:26;;;;;;;27.05;11.55;;;6.60;99.90;;;;;;6219286;23;20352;-79
2023/03/22 03:17:41;;;;;;;26.95;11.90;;;6.80;99.90;;;;;;6193294;23;20020;-79
2023/03/22 03:20:29;;;;;;;28.27;12.07;;;6.70;99.90;;;;;;6114479;23;20021;-80
2023/03/22 03:23:20;;;;;;;32.55;12.80;;;6.80;99.90;;;;;;6218668;23;20017;-80
2023/03/22 03:26:12;;;;;;;26.55;12.27;;;6.80;99.90;;;;;;6194929;23;20020;-79
2023/03/22 03:28:48;;;;;;;25.38;11.30;;;7.00;99.90;;;;;;6190394;23;20027;-79
2023/03/22 03:31:30;;;;;;;26.08;11.23;;;6.90;99.90;;;;;;6195716;23;20070;-79
2023/03/22 03:34:17;;;;;;;29.35;11.68;;;6.80;99.90;;;;;;6190906;22;20352;-79
2023/03/22 03:37:04;;;;;;;26.50;11.15;;;6.80;99.90;;;;;;6167289;23;20024;-79
2023/03/22 03:39:36;;;;;;;26.88;10.95;;;7.20;99.90;;;;;;6192800;23;20031;-79
2023/03/22 03:42:05;;;;;;;28.00;11.35;;;7.00;99.90;;;;;;6160322;23;20344;-79
2023/03/22 03:44:35;;;;;;;24.08;11.20;;;7.00;99.90;;;;;;6184457;23;20040;-79
2023/03/22 03:47:06;;;;;;;24.67;10.88;;;7.00;99.90;;;;;;6165186;23;20392;-79
2023/03/22 03:49:37;;;;;;;26.52;11.65;;;6.90;99.90;;;;;;6165131;23;20084;-79
2023/03/22 03:52:05;;;;;;;26.58;11.63;;;7.00;99.90;;;;;;6165161;23;20028;-79
2023/03/22 03:54:33;;;;;;;27.17;12.10;;;7.00;99.90;;;;;;6189985;23;20025;-79
2023/03/22 03:57:05;;;;;;;26.58;11.68;;;6.90;99.90;;;;;;6189550;23;20337;-79
2023/03/22 03:59:32;;;;;;;25.02;11.32;;;7.00;99.90;;;;;;6186746;23;20136;-79
2023/03/22 04:02:05;;;;;;;29.10;12.70;;;7.00;99.90;;;;;;6189353;23;20071;-79
2023/03/22 04:04:34;;;;;;;27.58;12.50;;;7.10;99.90;;;;;;6164416;23;20027;-79
2023/03/22 04:07:06;;;;;;;20.88;10.40;;;6.90;99.90;;;;;;6188629;23;20033;-79
2023/03/22 04:09:39;;;;;;;30.58;12.57;;;6.90;99.90;;;;;;6165985;23;20032;-79
2023/03/22 04:12:15;;;;;;;31.23;12.27;;;6.90;99.90;;;;;;6167769;23;20026;-79
2023/03/22 04:14:54;;;;;;;27.67;12.05;;;6.90;99.90;;;;;;6165670;23;20090;-79
2023/03/22 04:17:30;;;;;;;34.20;13.93;;;6.80;99.90;;;;;;6164681;23;20020;-79
2023/03/22 04:19:58;;;;;;;37.50;15.68;;;6.70;99.90;;;;;;6162689;23;20116;-80
2023/03/22 04:22:26;;;;;;;31.90;14.35;;;6.80;99.90;;;;;;6163285;23;20020;-79
2023/03/22 04:24:58;;;;;;;30.38;14.13;;;6.70;99.90;;;;;;6163932;23;20016;-79
2023/03/22 04:27:26;;;;;;;27.65;13.48;;;6.70;99.90;;;;;;6162813;23;20020;-79
2023/03/22 04:30:00;;;;;;;29.15;13.13;;;6.70;99.90;;;;;;6153572;23;20012;-79
2023/03/22 04:32:47;;;;;;;28.08;13.55;;;6.90;99.90;;;;;;6192693;23;20047;-79
2023/03/22 04:35:20;;;;;;;29.42;13.27;;;6.90;99.90;;;;;;6177334;23;20348;-79
2023/03/22 04:37:48;;;;;;;29.98;13.07;;;7.10;99.90;;;;;;6214608;23;20055;-79
2023/03/22 04:40:19;;;;;;;33.35;13.40;;;7.10;99.90;;;;;;6194514;23;20043;-79
2023/03/22 04:43:08;;;;;;;34.67;12.77;;;6.90;99.90;;;;;;6222917;23;20095;-79
2023/03/22 04:46:11;;;;;;;28.00;12.15;;;6.90;99.90;;;;;;6201293;23;20482;-79
2023/03/22 04:48:54;;;;;;;29.52;12.10;;;6.80;99.90;;;;;;6218567;23;20016;-79
2023/03/22 04:51:23;;;;;;;30.10;12.13;;;6.40;99.90;;;;;;6194400;23;20051;-79
2023/03/22 04:54:06;;;;;;;23.92;11.18;;;6.80;99.90;;;;;;6219015;23;20016;-79
2023/03/22 04:56:38;;;;;;;26.17;12.88;;;6.80;99.90;;;;;;6193584;23;20517;-79
2023/03/22 04:59:05;;;;;;;27.15;11.90;;;6.60;99.90;;;;;;6192902;23;20032;-80
2023/03/22 05:01:34;;;;;;;35.83;15.05;;;5.90;99.90;;;;;;6218718;23;20625;-79
2023/03/22 05:04:09;;;;;;;33.15;13.20;;;6.80;99.90;;;;;;6199469;23;20016;-80
2023/03/22 05:06:37;;;;;;;31.92;12.63;;;6.80;99.90;;;;;;6196154;23;20020;-79
2023/03/22 05:09:11;;;;;;;31.98;13.60;;;6.80;99.90;;;;;;6190768;23;20067;-79
2023/03/22 05:11:39;;;;;;;31.80;12.82;;;7.10;99.90;;;;;;6201485;23;20809;-79
2023/03/22 05:14:17;;;;;;;32.28;12.88;;;6.80;99.90;;;;;;6195722;23;20030;-79
2023/03/22 05:16:45;;;;;;;28.25;13.05;;;6.80;99.90;;;;;;6194189;23;20026;-79
2023/03/22 05:19:12;;;;;;;29.83;12.27;;;7.00;99.90;;;;;;6193711;23;20611;-80
2023/03/22 05:21:44;;;;;;;24.38;11.35;;;6.70;99.90;;;;;;6195240;23;20074;-80
2023/03/22 05:24:11;;;;;;;22.38;11.55;;;6.90;99.90;;;;;;6219391;23;20024;-80
2023/03/22 05:26:41;;;;;;;27.75;11.85;;;7.00;99.90;;;;;;6196068;23;20960;-79
2023/03/22 05:29:10;;;;;;;28.75;11.38;;;7.00;99.90;;;;;;6218664;23;20016;-80
2023/03/22 05:31:52;;;;;;;26.70;12.52;;;7.00;99.90;;;;;;6195337;23;20115;-79
2023/03/22 05:34:20;;;;;;;24.02;10.88;;;7.20;99.90;;;;;;6191070;23;20062;-79
2023/03/22 05:36:50;;;;;;;27.08;12.23;;;7.20;99.90;;;;;;6215573;23;20074;-79
2023/03/22 05:39:28;;;;;;;28.30;11.68;;;7.40;99.90;;;;;;6195517;23;20031;-79
2023/03/22 05:41:57;;;;;;;28.27;11.60;;;7.40;99.90;;;;;;6193914;23;20024;-79
2023/03/22 05:44:28;;;;;;;25.10;11.10;;;7.40;99.90;;;;;;6193349;23;20016;-79
2023/03/22 05:47:08;;;;;;;29.63;12.30;;;7.50;99.90;;;;;;6194811;23;20023;-80
2023/03/22 05:49:39;;;;;;;28.40;11.73;;;7.10;99.90;;;;;;6197689;23;20016;-79
2023/03/22 05:52:07;;;;;;;25.45;11.45;;;7.50;99.90;;;;;;6195962;23;20020;-79
2023/03/22 05:54:47;;;;;;;26.17;12.43;;;7.60;99.90;;;;;;6195382;23;20016;-79
2023/03/22 05:57:16;;;;;;;28.65;12.38;;;7.80;99.90;;;;;;6194665;23;20027;-79
2023/03/22 05:59:43;;;;;;;29.77;13.13;;;7.80;99.90;;;;;;6220763;23;20016;-80
2023/03/22 06:02:17;;;;;;;34.05;14.82;;;7.90;99.90;;;;;;6218995;23;20817;-79
2023/03/22 06:04:45;;;;;;;27.77;13.23;;;8.10;99.90;;;;;;6193989;23;20107;-80
2023/03/22 06:07:27;;;;;;;27.88;14.00;;;8.00;99.90;;;;;;6193766;23;20020;-80
2023/03/22 06:10:58;;;;;;;44.72;17.88;;;8.10;99.90;;;;;;6224978;23;20020;-80
2023/03/22 06:14:15;;;;;;;30.20;13.18;;;8.30;99.90;;;;;;6105728;23;20026;-80
2023/03/22 06:17:21;;;;;;;37.15;14.15;;;8.60;99.90;;;;;;5998328;23;20056;-80
2023/03/22 06:20:13;;;;;;;28.80;11.65;;;8.40;99.90;;;;;;6009324;23;20027;-80
2023/03/22 06:23:01;;;;;;;;;;;8.50;99.90;;;;;;5956187;24;20059;-80
2023/03/22 06:26:19;;;;;;;24.15;10.88;;;9.60;99.90;;;;;;5890212;24;19931;-80
2023/03/22 06:28:51;;;;;;;25.95;11.85;;;8.80;99.90;;;;;;5883513;24;20034;-80
2023/03/22 06:31:25;;;;;;;29.25;12.27;;;8.90;99.90;;;;;;5862441;24;20021;-81
2023/03/22 06:34:19;;;;;;;28.30;12.73;;;8.90;99.90;;;;;;6221054;22;20008;-80
2023/03/22 06:37:10;;;;;;;28.05;11.38;;;8.70;99.90;;;;;;6122251;23;20085;-80
2023/03/22 06:39:41;;;;;;;25.83;12.05;;;9.70;99.90;;;;;;6182293;23;20052;-80
2023/03/22 06:45:45;;;;;;;17.50;8.40;;;9.80;99.90;;;;;;6241813;22;20035;-80
2023/03/22 06:48:27;;;;;;;15.50;6.60;;;9.50;99.90;;;;;;6253637;23;20024;-80
2023/03/22 06:51:22;;;;;;;19.77;8.23;;;9.80;99.90;;;;;;6226968;23;20080;-80
2023/03/22 07:46:31;;;;;;;17.27;7.78;;;12.20;92.00;;;;;;6249122;22;20629;31
2023/03/22 07:59:50;;;;;;;14.95;7.13;;;12.60;90.70;;;;;;6241562;22;20031;-80
2023/03/22 08:02:19;;;;;;;15.40;6.88;;;12.70;89.60;;;;;;6229987;22;20079;-80
2023/03/22 08:04:56;;;;;;;13.82;7.45;;;12.70;88.60;;;;;;6233983;22;20022;-79
2023/03/22 08:21:49;;;;;;;12.43;5.82;;;13.50;86.10;;;;;;6254836;22;20080;-80
2023/03/22 08:25:13;;;;;;;12.10;6.25;;;13.40;84.70;;;;;;6245195;22;20026;31
2023/03/22 08:31:06;;;;;;;10.90;5.85;;;13.50;85.20;;;;;;6242251;22;21109;31
2023/03/22 08:34:11;;;;;;;13.52;6.18;;;13.70;84.60;;;;;;6229781;22;20030;-80
2023/03/22 08:40:10;;;;;;;13.82;6.22;;;13.90;84.70;;;;;;6244157;22;20030;-79
2023/03/22 08:49:20;;;;;;;13.55;6.45;;;14.00;83.10;;;;;;6247952;22;20039;-80
2023/03/22 08:51:56;;;;;;;12.63;6.47;;;14.20;83.00;;;;;;6191228;23;20040;-80
2023/03/22 08:54:52;;;;;;;10.80;5.85;;;14.20;82.20;;;;;;6220018;23;20031;-80
2023/03/22 08:57:49;;;;;;;13.15;6.50;;;14.20;82.10;;;;;;6183030;23;20059;-80
2023/03/22 09:00:24;;;;;;;11.55;5.53;;;14.30;81.40;;;;;;6202864;23;20027;-80
2023/03/22 09:03:08;;;;;;;12.85;6.78;;;14.40;81.80;;;;;;6189366;23;20111;-80
2023/03/22 09:05:37;;;;;;;13.35;6.85;;;14.30;81.20;;;;;;6205944;23;20045;-80
2023/03/22 09:08:06;;;;;;;13.60;5.78;;;14.50;81.70;;;;;;6223602;23;20060;-80
2023/03/22 09:10:40;;;;;;;13.00;6.57;;;13.90;80.30;;;;;;6242980;23;20016;-80
2023/03/22 09:13:12;;;;;;;13.90;7.53;;;14.80;81.00;;;;;;6181535;23;20432;-80
2023/03/22 09:15:49;;;;;;;14.18;6.35;;;14.80;80.00;;;;;;6202053;23;20029;-80
2023/03/22 09:18:23;;;;;;;11.50;6.05;;;15.00;79.60;;;;;;6187062;23;20075;-80
2023/03/22 09:20:52;;;;;;;15.35;7.90;;;15.30;79.70;;;;;;6199650;23;20024;-80
2023/03/22 09:23:24;;;;;;;12.48;7.00;;;15.00;78.30;;;;;;6211798;23;20020;-80
2023/03/22 09:25:55;;;;;;;13.95;6.65;;;14.70;80.20;;;;;;6205335;23;20512;-80
2023/03/22 09:28:25;;;;;;;15.55;8.20;;;15.00;81.10;;;;;;6180835;23;20021;-80
2023/03/22 09:31:03;;;;;;;11.85;6.20;;;14.80;78.50;;;;;;6183370;23;20025;-80
2023/03/22 09:33:40;;;;;;;17.25;7.43;;;14.90;79.90;;;;;;6214436;23;20016;-80
2023/03/22 09:36:10;;;;;;;13.30;6.80;;;15.20;79.80;;;;;;6192635;23;20342;-80
2023/03/22 09:38:40;;;;;;;13.32;7.13;;;15.20;77.90;;;;;;6220285;22;20028;-80
2023/03/22 09:41:50;;;;;;;17.92;7.40;;;15.30;77.60;;;;;;6244501;22;20016;-80
2023/03/22 09:44:45;;;;;;;14.95;7.80;;;15.40;78.30;;;;;;6088576;23;20023;-80
2023/03/22 09:47:27;;;;;;;13.85;7.25;;;16.00;78.00;;;;;;6027155;23;20030;-80
2023/03/22 09:53:54;;;;;;;14.88;6.53;;;15.80;78.50;;;;;;6250299;22;20034;-80
2023/03/22 09:56:31;;;;;;;12.48;6.20;;;15.80;77.20;;;;;;6238047;22;20288;-80
2023/03/22 09:59:16;;;;;;;12.15;6.80;;;15.70;77.10;;;;;;6213466;23;20084;-80
2023/03/22 10:05:02;;;;;;;12.98;5.82;;;15.90;75.90;;;;;;6245640;22;20424;-80
2023/03/22 10:08:09;;;;;;;13.55;6.07;;;15.70;75.10;;;;;;6238548;22;20028;-80
2023/03/22 10:10:42;;;;;;;14.15;6.38;;;16.20;75.50;;;;;;6290131;22;20093;-80
2023/03/22 10:13:15;;;;;;;10.07;6.15;;;16.30;75.20;;;;;;6253856;22;20032;-81
2023/03/22 10:15:51;;;;;;;15.02;6.25;;;16.30;76.70;;;;;;6252439;22;20344;-80
2023/03/22 10:18:28;;;;;;;13.45;5.60;;;16.40;75.30;;;;;;6265216;22;20038;-80
2023/03/22 10:21:01;;;;;;;12.20;6.30;;;16.30;74.40;;;;;;6252324;22;20003;-80
2023/03/22 10:23:38;;;;;;;11.55;5.43;;;16.30;75.90;;;;;;6276397;22;20118;-79
2023/03/22 10:26:06;;;;;;;11.48;5.45;;;16.40;74.50;;;;;;6261601;22;20107;-80
2023/03/22 10:28:37;;;;;;;11.40;5.75;;;16.40;73.80;;;;;;6254848;22;20023;-80
2023/03/22 10:31:05;;;;;;;9.63;5.70;;;16.40;73.80;;;;;;6274735;22;20022;-80
2023/03/22 10:33:52;;;;;;;13.95;5.97;;;16.40;74.90;;;;;;6264201;22;20050;-80
2023/03/22 10:36:25;;;;;;;10.07;5.68;;;16.60;72.70;;;;;;6243858;22;20054;-80
2023/03/22 10:38:59;;;;;;;10.73;6.70;;;16.70;71.20;;;;;;6243671;22;20027;-80
2023/03/22 10:41:28;;;;;;;11.82;5.38;;;16.40;70.80;;;;;;6268895;22;20093;-80
2023/03/22 10:43:59;;;;;;;12.70;5.40;;;16.20;73.10;;;;;;6271219;22;20039;-80
2023/03/22 10:46:38;;;;;;;12.10;5.90;;;16.70;73.90;;;;;;6247455;22;20474;-80
2023/03/22 10:49:17;;;;;;;12.00;5.57;;;17.20;71.30;;;;;;6240869;22;20070;-80
2023/03/22 10:51:52;;;;;;;12.70;5.63;;;16.90;71.20;;;;;;6245182;22;20309;-80
2023/03/22 10:54:20;;;;;;;10.07;5.47;;;16.90;71.10;;;;;;6272280;22;20114;-80
2023/03/22 10:56:48;;;;;;;13.30;5.40;;;17.00;71.00;;;;;;6258170;22;20020;-80
2023/03/22 10:59:54;;;;;;;16.67;6.72;;;17.20;71.40;;;;;;6246945;22;20038;-80
2023/03/22 11:02:25;;;;;;;9.52;5.05;;;17.10;70.00;;;;;;6261525;22;20583;-80
2023/03/22 11:05:00;;;;;;;12.20;5.35;;;17.20;70.00;;;;;;6269257;22;20093;-80
2023/03/22 11:07:36;;;;;;;14.23;6.10;;;17.10;70.20;;;;;;6274135;22;20046;-80
2023/03/22 11:10:07;;;;;;;10.90;5.88;;;16.60;69.00;;;;;;6243165;22;20408;-80
2023/03/22 11:12:42;;;;;;;10.88;5.72;;;16.80;69.60;;;;;;6261092;22;20526;-80
2023/03/22 11:15:24;;;;;;;9.73;4.85;;;16.80;70.10;;;;;;6289881;22;20276;-80
2023/03/22 11:17:56;;;;;;;11.93;5.80;;;17.00;69.90;;;;;;6265906;22;20120;-80
2023/03/22 11:20:24;;;;;;;10.98;6.05;;;16.90;71.40;;;;;;6237135;22;20028;-80
2023/03/22 11:22:52;;;;;;;13.52;5.68;;;17.10;71.40;;;;;;6237262;22;20024;-80
2023/03/22 11:28:33;;;;;;;14.45;5.82;;;16.90;72.80;;;;;;6240747;22;20106;-80
2023/03/22 11:31:04;;;;;;;11.02;5.85;;;16.80;72.20;;;;;;6185521;23;20058;-80
2023/03/22 11:33:33;;;;;;;15.80;5.97;;;16.00;72.50;;;;;;6179191;23;20074;-80
2023/03/22 11:36:15;;;;;;;10.93;5.90;;;16.60;71.80;;;;;;6214308;23;20023;-81
2023/03/22 11:38:43;;;;;;;;;;;16.50;70.90;;;;;;6201572;22;20023;-80
2023/03/22 11:41:23;;;;;;;11.13;6.13;;;17.30;72.80;;;;;;6216559;22;19919;-81
2023/03/22 11:44:01;;;;;;;12.80;7.15;;;16.40;72.70;;;;;;6236164;22;20026;-81
2023/03/22 11:46:30;;;;;;;12.55;6.25;;;16.20;73.30;;;;;;6211817;22;20024;-81
2023/03/22 11:49:01;;;;;;;12.55;6.22;;;16.00;73.50;;;;;;6211649;22;20445;-81
2023/03/22 11:51:34;;;;;;;9.18;5.18;;;15.50;74.00;;;;;;6209870;22;20020;-81
2023/03/22 11:54:33;;;;;;;13.45;6.55;;;16.30;75.30;;;;;;6209006;22;20027;-81
2023/03/22 11:57:04;;;;;;;12.05;6.45;;;15.90;74.80;;;;;;6210181;22;20023;-81
2023/03/22 11:59:44;;;;;;;11.73;5.97;;;15.80;76.20;;;;;;6209984;22;20119;-81
2023/03/22 12:02:40;;;;;;;14.10;6.35;;;15.80;76.10;;;;;;6208991;22;20074;-81
2023/03/22 12:05:26;;;;;;;12.70;6.32;;;15.10;74.90;;;;;;6211838;22;20027;-81
2023/03/22 12:08:02;;;;;;;14.18;7.20;;;15.70;75.90;;;;;;6209505;22;20510;-81
2023/03/22 12:10:40;;;;;;;15.25;6.97;;;15.60;76.00;;;;;;6215453;22;20406;-81
2023/03/22 12:13:25;;;;;;;16.10;8.13;;;15.40;76.10;;;;;;6214930;22;20024;-81
2023/03/22 12:15:57;;;;;;;17.75;9.02;;;15.20;76.60;;;;;;6215407;22;20498;-81
2023/03/22 12:18:43;;;;;;;15.48;7.25;;;15.00;77.20;;;;;;6233773;22;20070;-81
2023/03/22 12:21:11;;;;;;;13.88;6.43;;;15.10;77.40;;;;;;6233893;22;20027;-81
2023/03/22 12:23:39;;;;;;;16.48;7.20;;;15.00;77.80;;;;;;6209061;22;20027;-81
2023/03/22 12:26:18;;;;;;;12.10;6.68;;;15.10;78.60;;;;;;6234174;22;20020;-81
2023/03/22 12:29:04;;;;;;;13.82;7.13;;;15.00;77.60;;;;;;6234802;22;20050;-81
2023/03/22 12:31:50;;;;;;;17.92;7.28;;;14.90;78.40;;;;;;6209546;22;20026;-81
2023/03/22 12:34:35;;;;;;;16.70;7.93;;;14.60;78.80;;;;;;6208853;22;20019;-81
2023/03/22 12:37:06;;;;;;;17.95;8.43;;;14.80;79.20;;;;;;6210188;22;20461;-81
2023/03/22 12:39:42;;;;;;;15.90;7.22;;;14.80;79.00;;;;;;6238729;22;20027;-81
2023/03/22 12:42:47;;;;;;;17.48;7.18;;;14.90;79.00;;;;;;6208794;22;20023;-81
2023/03/22 12:45:25;;;;;;;19.50;7.93;;;14.90;78.90;;;;;;6213638;22;20023;-81
2023/03/22 12:48:09;;;;;;;18.85;8.88;;;14.90;78.40;;;;;;6237088;22;20023;-81
2023/03/22 12:50:46;;;;;;;15.18;8.90;;;14.90;77.90;;;;;;6217061;22;20015;-80
2023/03/22 12:53:19;;;;;;;17.65;9.20;;;14.40;77.80;;;;;;6236033;22;20078;-80
2023/03/22 12:55:48;;;;;;;18.73;8.88;;;14.90;78.80;;;;;;6208602;22;20039;-80
2023/03/22 12:58:21;;;;;;;16.35;9.60;;;15.00;79.50;;;;;;6213339;22;20046;-81
2023/03/22 13:01:24;;;;;;;19.50;8.77;;;15.20;78.50;;;;;;6209498;22;20027;-81
2023/03/22 13:03:53;;;;;;;18.52;8.95;;;15.20;78.50;;;;;;6151112;22;20031;-81
2023/03/22 13:06:56;;;;;;;17.40;9.23;;;15.40;78.70;;;;;;6237405;22;20012;-81
2023/03/22 13:09:42;;;;;;;17.38;9.30;;;15.40;77.90;;;;;;6218860;22;20026;-80
2023/03/22 13:12:15;;;;;;;18.50;8.77;;;15.30;78.60;;;;;;6216475;22;20039;-80
2023/03/22 13:14:55;;;;;;;16.83;8.15;;;15.30;78.50;;;;;;6242258;22;20034;-81
2023/03/22 13:17:22;;;;;;;16.40;7.78;;;15.50;77.50;;;;;;6215747;22;20954;-81
2023/03/22 13:20:06;;;;;;;13.43;7.07;;;15.70;77.90;;;;;;6242726;22;20418;-80
2023/03/22 13:22:37;;;;;;;17.52;7.85;;;15.80;75.80;;;;;;6234487;22;20459;-80
2023/03/22 13:25:11;;;;;;;14.25;7.80;;;15.40;75.40;;;;;;6214986;22;20022;-80
2023/03/22 13:27:56;;;;;;;13.15;6.55;;;15.90;75.30;;;;;;6219099;22;20035;-80
2023/03/22 13:30:31;;;;;;;16.77;7.07;;;15.80;75.30;;;;;;6235660;22;20023;-80
2023/03/22 13:33:08;;;;;;;11.90;6.95;;;16.20;73.60;;;;;;6235554;22;20043;-80
2023/03/22 13:35:48;;;;;;;12.35;5.30;;;16.30;72.80;;;;;;6240686;22;20028;-80
2023/03/22 13:38:37;;;;;;;11.45;6.03;;;16.30;72.60;;;;;;6234747;22;20023;-81
2023/03/22 13:41:24;;;;;;;10.68;4.97;;;16.50;72.50;;;;;;6210094;22;20028;-81
2023/03/22 13:43:56;;;;;;;8.75;4.40;;;16.50;71.20;;;;;;6233900;22;20020;-81
2023/03/22 13:46:24;;;;;;;9.98;4.90;;;16.40;70.40;;;;;;6209128;22;20363;-81
2023/03/22 13:49:01;;;;;;;9.00;4.22;;;16.40;70.60;;;;;;6213578;22;20020;-81
2023/03/22 13:51:31;;;;;;;5.60;2.65;;;16.60;70.30;;;;;;6208077;22;20058;-80
2023/03/22 13:54:16;;;;;;;5.45;2.55;;;16.60;66.10;;;;;;6208383;22;20020;-80
2023/03/22 13:56:54;;;;;;;4.18;2.45;;;16.70;66.00;;;;;;6209662;22;20046;-80
2023/03/22 13:59:26;;;;;;;7.03;3.28;;;16.70;65.80;;;;;;6209334;22;20024;-80
2023/03/22 14:01:56;;;;;;;9.40;3.28;;;16.70;65.40;;;;;;6233161;22;20020;-80
2023/03/22 14:04:47;;;;;;;8.57;3.80;;;16.80;66.20;;;;;;6211996;22;20450;-80
2023/03/22 14:07:52;;;;;;;6.18;3.00;;;16.90;67.40;;;;;;6212452;22;20024;-80
2023/03/22 14:10:37;;;;;;;4.82;2.83;;;17.00;65.70;;;;;;6210627;22;20023;-80
2023/03/22 14:13:26;;;;;;;6.82;3.10;;;17.00;66.50;;;;;;6220977;22;20024;-80
2023/03/22 14:16:01;;;;;;;7.82;3.08;;;17.20;67.50;;;;;;6220840;22;20019;-81
2023/03/22 14:18:35;;;;;;;8.50;3.47;;;17.00;66.40;;;;;;6251837;22;20024;-81
2023/03/22 14:21:08;;;;;;;5.32;2.20;;;17.90;66.50;;;;;;6237906;22;20516;-81
2023/03/22 14:23:56;;;;;;;5.57;2.65;;;16.90;63.40;;;;;;6210604;22;20072;-81
2023/03/22 14:26:30;;;;;;;4.63;2.30;;;16.80;63.90;;;;;;6208451;22;20018;-80
2023/03/22 14:29:10;;;;;;;4.63;1.73;;;16.70;63.30;;;;;;6210688;22;20018;-80
2023/03/22 14:31:36;;;;;;;4.57;1.75;;;16.80;62.50;;;;;;6215851;22;20157;-80
2023/03/22 14:34:07;;;;;;;3.55;1.50;;;16.70;63.00;;;;;;6217794;23;20755;-80
2023/03/22 14:36:40;;;;;;;5.10;2.10;;;16.90;62.70;;;;;;6187213;23;20215;-80
2023/03/22 14:39:16;;;;;;;5.55;2.40;;;16.90;63.40;;;;;;6155454;23;20391;-80
2023/03/22 14:42:01;;;;;;;4.38;1.88;;;17.80;64.20;;;;;;6171975;23;20008;-80
2023/03/22 14:44:39;;;;;;;4.38;1.83;;;16.70;63.30;;;;;;6187141;23;20012;-81
2023/03/22 14:47:16;;;;;;;4.07;2.00;;;16.30;63.50;;;;;;6189235;23;20095;-81
2023/03/22 14:49:46;;;;;;;4.88;1.80;;;16.70;63.60;;;;;;6150651;23;20021;-81
2023/03/22 14:52:24;;;;;;;5.70;2.17;;;16.20;63.70;;;;;;6150573;23;20071;-80
2023/03/22 14:54:58;;;;;;;5.40;1.88;;;16.40;63.90;;;;;;6149822;23;20478;-80
2023/03/22 14:57:35;;;;;;;;;;;16.60;63.40;;;;;;6132757;23;20074;-80
2023/03/22 15:00:14;;;;;;;11.13;2.00;;;16.50;63.50;;;;;;6159464;23;19995;-80
2023/03/22 15:02:45;;;;;;;7.05;2.00;;;16.40;63.20;;;;;;6155282;23;20082;-80
2023/03/22 15:05:20;;;;;;;8.77;2.47;;;16.30;64.90;;;;;;6192244;22;20032;-80
2023/03/22 15:07:49;;;;;;;4.07;1.75;;;16.40;63.70;;;;;;6184144;22;20023;-80
2023/03/22 15:10:28;;;;;;;5.25;1.80;;;16.30;64.30;;;;;;6186926;22;20026;-80
2023/03/22 15:12:56;;;;;;;4.68;2.05;;;16.30;63.50;;;;;;6210081;22;20715;-80
2023/03/22 15:15:31;;;;;;;6.20;2.40;;;16.30;64.00;;;;;;6216126;22;20065;-80
2023/03/22 15:18:00;;;;;;;6.53;2.60;;;16.70;64.60;;;;;;6208754;22;20019;-80